Time;durP1;ratioP1;P1;durP2;ratioP2;P2;SDS_P1;SDS_P2;PMS_P1;PMS_P2;Temp;Humidity;BMP_temperature;BMP_pressure;BME280_temperature;BME280_humidity;BME280_pressure;Samples;Min_cycle;Max_cycle;Signal;HPM_P1;HPM_P2
2021/05/15 00:01:34;;;;;;;16.13;8.93;;;12.80;99.90;;;;;;5012240;28;20667;-77
2021/05/15 00:04:02;;;;;;;12.30;9.20;;;12.60;99.90;;;;;;5012378;28;20176;-77
2021/05/15 00:06:27;;;;;;;13.48;8.73;;;12.40;99.90;;;;;;5012551;28;20200;-77
2021/05/15 00:08:53;;;;;;;13.13;8.07;;;12.40;99.90;;;;;;5012225;28;20242;-77
2021/05/15 00:11:19;;;;;;;10.38;8.18;;;12.70;99.90;;;;;;5012338;28;20633;-77
2021/05/15 00:13:46;;;;;;;9.15;7.63;;;12.70;99.90;;;;;;5012410;28;20189;-78
2021/05/15 00:16:11;;;;;;;12.65;8.07;;;12.60;99.90;;;;;;5011275;28;20259;-77
2021/05/15 00:18:39;;;;;;;8.65;7.25;;;12.50;99.90;;;;;;5012264;28;20226;-78
2021/05/15 00:21:04;;;;;;;13.23;8.05;;;12.60;99.90;;;;;;5012308;28;20235;-77
2021/05/15 00:23:30;;;;;;;7.72;7.00;;;12.70;99.90;;;;;;5012142;28;20271;-77
2021/05/15 00:25:58;;;;;;;7.82;7.03;;;12.60;99.90;;;;;;5012665;28;20177;-77
2021/05/15 00:28:23;;;;;;;15.23;7.13;;;12.50;99.90;;;;;;5012268;28;20771;-78
2021/05/15 00:30:49;;;;;;;7.85;6.90;;;12.50;99.90;;;;;;5012566;28;20247;-77
2021/05/15 00:33:14;;;;;;;10.15;7.28;;;12.60;99.90;;;;;;5012423;28;20235;-77
2021/05/15 00:35:40;;;;;;;14.32;8.27;;;12.50;99.90;;;;;;5012244;28;20168;-77
2021/05/15 00:38:05;;;;;;;9.30;7.45;;;12.60;99.90;;;;;;5012187;28;20196;-77
2021/05/15 00:40:31;;;;;;;12.25;8.20;;;12.60;99.90;;;;;;5012190;28;20203;-77
2021/05/15 00:42:56;;;;;;;13.88;8.82;;;12.80;99.90;;;;;;5011874;28;20161;-77
2021/05/15 00:45:22;;;;;;;11.18;8.27;;;12.90;99.90;;;;;;5012295;28;20235;-78
2021/05/15 00:47:48;;;;;;;11.00;7.68;;;12.80;99.90;;;;;;5010861;28;20199;-77
2021/05/15 00:50:13;;;;;;;11.38;7.38;;;12.70;99.90;;;;;;5012100;28;20564;-77
2021/05/15 00:52:39;;;;;;;13.10;8.00;;;12.90;99.90;;;;;;5012372;28;20412;-80
2021/05/15 00:55:11;;;;;;;11.90;8.73;;;12.80;99.90;;;;;;5012066;28;20160;-78
2021/05/15 00:57:38;;;;;;;13.68;7.45;;;12.70;99.90;;;;;;5010749;28;20235;-78
2021/05/15 01:00:10;;;;;;;12.30;9.48;;;12.60;99.90;;;;;;5012250;28;20181;-78
2021/05/15 01:02:36;;;;;;;12.40;8.70;;;12.60;99.90;;;;;;5011937;28;20205;-87
2021/05/15 01:05:03;;;;;;;15.02;7.95;;;12.30;99.90;;;;;;5015464;28;20176;-78
2021/05/15 01:07:28;;;;;;;12.82;7.93;;;12.30;99.90;;;;;;5015173;28;20560;-77
2021/05/15 01:09:54;;;;;;;16.33;8.48;;;12.30;99.90;;;;;;5015690;28;20176;-77
2021/05/15 01:12:20;;;;;;;13.77;8.70;;;12.40;99.90;;;;;;5015356;28;20172;-77
2021/05/15 01:14:45;;;;;;;13.60;9.27;;;12.60;99.90;;;;;;5016314;28;20160;-78
2021/05/15 01:17:11;;;;;;;16.13;9.20;;;12.50;99.90;;;;;;5016357;28;20189;-77
2021/05/15 01:19:37;;;;;;;10.50;8.75;;;12.50;99.90;;;;;;5016529;28;20183;-78
2021/05/15 01:22:08;;;;;;;12.93;9.30;;;12.50;99.90;;;;;;5014728;28;20557;-77
2021/05/15 01:24:35;;;;;;;12.13;10.63;;;12.50;99.90;;;;;;5014108;28;20520;-77
2021/05/15 01:27:05;;;;;;;13.60;10.20;;;12.60;99.90;;;;;;5015115;28;20180;-77
2021/05/15 01:29:31;;;;;;;14.45;11.15;;;12.50;99.90;;;;;;5015033;28;20173;-78
2021/05/15 01:31:56;;;;;;;16.98;11.88;;;12.70;99.90;;;;;;5013750;28;20172;-76
2021/05/15 01:34:22;;;;;;;22.25;11.75;;;12.60;99.90;;;;;;5015367;28;20165;-77
2021/05/15 01:36:47;;;;;;;16.80;11.93;;;12.80;99.90;;;;;;5015231;28;20683;-77
2021/05/15 01:39:15;;;;;;;19.88;11.43;;;13.00;99.90;;;;;;5013748;28;20195;-77
2021/05/15 01:41:41;;;;;;;14.38;9.77;;;13.10;99.90;;;;;;5015335;28;20283;-77
2021/05/15 01:44:07;;;;;;;16.90;10.95;;;13.10;99.90;;;;;;5014815;28;20692;-78
2021/05/15 01:46:33;;;;;;;21.67;12.40;;;12.90;99.90;;;;;;5015135;28;20260;-77
2021/05/15 01:48:58;;;;;;;16.75;12.07;;;13.00;99.90;;;;;;5014921;28;20280;-78
2021/05/15 01:51:24;;;;;;;17.27;12.07;;;13.20;99.90;;;;;;5014753;28;20169;-77
2021/05/15 01:53:52;;;;;;;14.77;9.90;;;13.20;99.90;;;;;;5014454;28;20168;-77
2021/05/15 01:56:21;;;;;;;13.32;10.13;;;13.10;99.90;;;;;;5013498;28;20677;-77
2021/05/15 01:58:47;;;;;;;12.20;10.88;;;13.10;99.90;;;;;;5014581;28;20221;-77
2021/05/15 02:01:13;;;;;;;15.48;10.48;;;12.80;99.90;;;;;;5014715;28;20244;-81
2021/05/15 02:03:42;;;;;;;16.52;11.23;;;12.70;99.90;;;;;;5014850;28;20215;-77
2021/05/15 02:06:08;;;;;;;17.13;11.55;;;12.90;99.90;;;;;;5014934;28;20180;-77
2021/05/15 02:08:34;;;;;;;19.80;13.05;;;13.10;99.90;;;;;;5014387;28;20604;-77
2021/05/15 02:11:01;;;;;;;24.73;13.00;;;13.10;99.90;;;;;;5013391;28;20168;-76
2021/05/15 02:13:27;;;;;;;15.57;11.45;;;13.00;99.90;;;;;;5014532;28;20177;-78
2021/05/15 02:15:55;;;;;;;24.05;12.52;;;13.00;99.90;;;;;;5013874;28;20214;-77
2021/05/15 02:18:21;;;;;;;17.83;12.25;;;12.90;99.90;;;;;;5014335;28;20181;-77
2021/05/15 02:20:46;;;;;;;18.77;12.73;;;12.70;99.90;;;;;;5014202;28;20196;-77
2021/05/15 02:23:13;;;;;;;12.98;10.75;;;12.80;99.90;;;;;;5013945;28;20180;-77
2021/05/15 02:25:40;;;;;;;25.00;14.50;;;13.00;99.90;;;;;;5014430;28;20247;-77
2021/05/15 02:28:05;;;;;;;28.48;16.13;;;13.00;99.90;;;;;;5013957;28;20739;-77
2021/05/15 02:30:32;;;;;;;22.58;13.95;;;13.10;99.90;;;;;;5014451;28;20279;-86
2021/05/15 02:32:58;;;;;;;31.73;16.67;;;13.10;99.90;;;;;;5014158;28;20256;-77
2021/05/15 02:35:24;;;;;;;28.23;17.30;;;13.10;99.90;;;;;;5012894;28;20303;-77
2021/05/15 02:37:50;;;;;;;31.38;16.88;;;13.20;99.90;;;;;;5013947;28;20648;-77
2021/05/15 02:40:16;;;;;;;28.42;16.95;;;13.10;99.90;;;;;;5012888;28;20180;-77
2021/05/15 02:42:42;;;;;;;33.88;17.33;;;13.10;99.90;;;;;;5013535;28;20262;-77
2021/05/15 02:45:11;;;;;;;27.85;17.05;;;13.10;99.90;;;;;;5013852;28;20248;-77
2021/05/15 02:47:37;;;;;;;33.45;18.40;;;13.00;99.90;;;;;;5014020;28;20312;-87
2021/05/15 02:50:04;;;;;;;31.95;20.08;;;13.00;99.90;;;;;;5013650;28;20199;-77
2021/05/15 02:52:30;;;;;;;31.15;17.95;;;13.00;99.90;;;;;;5013606;28;20182;-77
2021/05/15 02:54:56;;;;;;;35.30;17.50;;;13.00;99.90;;;;;;5013494;28;20169;-77
2021/05/15 02:57:21;;;;;;;31.75;18.15;;;13.10;99.90;;;;;;5013618;28;20201;-77
2021/05/15 02:59:47;;;;;;;30.13;15.68;;;13.00;99.90;;;;;;5013742;28;20533;-83
2021/05/15 03:02:12;;;;;;;35.05;17.45;;;12.70;99.90;;;;;;5013662;28;20565;-77
2021/05/15 03:04:38;;;;;;;30.05;16.23;;;12.70;99.90;;;;;;5013666;28;20172;-78
2021/05/15 03:07:04;;;;;;;30.30;16.35;;;12.50;99.90;;;;;;5013451;28;20279;-77
2021/05/15 03:09:29;;;;;;;29.50;16.63;;;12.40;99.90;;;;;;5013332;28;20196;-77
2021/05/15 03:11:55;;;;;;;32.45;16.88;;;12.60;99.90;;;;;;5013596;28;20620;-77
2021/05/15 03:14:20;;;;;;;31.05;16.60;;;12.80;99.90;;;;;;5015517;28;20181;-77
2021/05/15 03:16:46;;;;;;;31.75;18.25;;;12.80;99.90;;;;;;5017532;28;20258;-77
2021/05/15 03:19:11;;;;;;;34.08;20.00;;;12.80;99.90;;;;;;5018264;28;20161;-77
2021/05/15 03:21:37;;;;;;;37.53;19.85;;;12.90;99.90;;;;;;5013393;28;20286;-77
2021/05/15 03:24:03;;;;;;;35.33;20.52;;;12.70;99.90;;;;;;5012992;28;20183;-78
2021/05/15 03:26:29;;;;;;;45.67;21.75;;;12.80;99.90;;;;;;5012523;28;20169;-78
2021/05/15 03:28:54;;;;;;;42.88;23.98;;;12.80;99.90;;;;;;5011363;28;20739;-79
2021/05/15 03:31:20;;;;;;;38.90;25.15;;;12.90;99.90;;;;;;5012973;28;20231;-76
2021/05/15 03:33:45;;;;;;;49.47;24.42;;;12.80;99.90;;;;;;5012939;28;20643;-80
2021/05/15 03:36:11;;;;;;;42.63;26.40;;;12.50;99.90;;;;;;5013750;28;20659;-78
2021/05/15 03:38:36;;;;;;;39.95;24.23;;;12.50;99.90;;;;;;5013713;28;20193;-77
2021/05/15 03:41:02;;;;;;;43.38;24.92;;;12.50;99.90;;;;;;5013704;28;20271;-77
2021/05/15 03:43:28;;;;;;;46.22;24.35;;;12.50;99.90;;;;;;5013497;28;20169;-77
2021/05/15 03:45:55;;;;;;;46.22;24.55;;;12.40;99.90;;;;;;5013351;28;20533;-77
2021/05/15 03:48:21;;;;;;;41.50;23.92;;;12.30;99.90;;;;;;5013374;28;20238;-77
2021/05/15 03:50:48;;;;;;;38.35;23.80;;;12.10;99.90;;;;;;5013116;28;20644;-78
2021/05/15 03:53:13;;;;;;;44.65;25.50;;;12.30;99.90;;;;;;5013208;28;20168;-78
2021/05/15 03:55:39;;;;;;;47.72;26.20;;;12.30;99.90;;;;;;5012787;28;20574;-77
2021/05/15 03:58:05;;;;;;;40.67;24.83;;;12.40;99.90;;;;;;5012816;28;20187;-77
2021/05/15 04:00:31;;;;;;;41.38;25.80;;;12.40;99.90;;;;;;5012462;28;20164;-77
2021/05/15 04:02:56;;;;;;;48.28;26.75;;;12.30;99.90;;;;;;5012872;28;20184;-77
2021/05/15 04:05:22;;;;;;;42.80;25.52;;;12.30;99.90;;;;;;5012957;28;20620;-77
2021/05/15 04:07:47;;;;;;;42.78;25.45;;;12.40;99.90;;;;;;5013243;28;20334;-78
2021/05/15 04:10:13;;;;;;;45.45;25.52;;;12.40;99.90;;;;;;5013133;28;20167;-78
2021/05/15 04:12:47;;;;;;;49.70;27.25;;;12.30;99.90;;;;;;5012793;28;20175;-77
2021/05/15 04:15:18;;;;;;;43.35;25.95;;;12.20;99.90;;;;;;5012107;28;20628;-76
2021/05/15 04:17:44;;;;;;;41.20;26.15;;;12.30;99.90;;;;;;5012816;28;20552;-77
2021/05/15 04:20:10;;;;;;;45.92;26.63;;;12.30;99.90;;;;;;5012686;28;20168;-77
2021/05/15 04:22:36;;;;;;;43.75;27.08;;;12.30;99.90;;;;;;5012315;28;20663;-76
2021/05/15 04:25:02;;;;;;;47.28;26.83;;;12.30;99.90;;;;;;5012772;28;20200;-77
2021/05/15 04:27:28;;;;;;;42.63;27.25;;;12.30;99.90;;;;;;5011088;28;20185;-77
2021/05/15 04:29:55;;;;;;;42.05;26.45;;;12.20;99.90;;;;;;5012906;28;20622;-77
2021/05/15 04:32:21;;;;;;;42.50;26.33;;;12.10;99.90;;;;;;5012602;28;20171;-77
2021/05/15 04:34:47;;;;;;;56.22;25.77;;;12.20;99.90;;;;;;5012598;28;20192;-77
2021/05/15 04:37:12;;;;;;;41.08;24.67;;;12.40;99.90;;;;;;5011743;28;20192;-77
2021/05/15 04:39:38;;;;;;;42.17;26.60;;;12.40;99.90;;;;;;5014849;28;21304;-77
2021/05/15 04:42:04;;;;;;;39.65;25.27;;;12.30;99.90;;;;;;5016122;28;20212;-77
2021/05/15 04:44:30;;;;;;;42.67;26.83;;;12.40;99.90;;;;;;5015884;28;20621;-77
2021/05/15 04:46:56;;;;;;;49.85;27.25;;;12.50;99.90;;;;;;5015969;28;20172;-84
2021/05/15 04:49:22;;;;;;;48.63;26.92;;;12.70;99.90;;;;;;5015899;28;20175;-84
2021/05/15 04:51:48;;;;;;;51.85;26.95;;;12.70;99.90;;;;;;5015921;28;20168;-77
2021/05/15 04:54:14;;;;;;;51.42;27.85;;;12.80;99.90;;;;;;5016060;28;20522;-77
2021/05/15 04:56:39;;;;;;;53.00;30.38;;;12.70;99.90;;;;;;5016056;28;20252;-77
2021/05/15 04:59:06;;;;;;;48.30;29.33;;;12.90;99.90;;;;;;5015567;28;20594;-76
2021/05/15 05:01:31;;;;;;;47.30;28.83;;;12.80;99.90;;;;;;5015715;28;20226;-77
2021/05/15 05:03:57;;;;;;;56.50;31.05;;;12.80;99.90;;;;;;5015937;28;20247;-76
2021/05/15 05:06:23;;;;;;;51.63;31.02;;;12.90;99.90;;;;;;5015617;28;20179;-76
2021/05/15 05:08:48;;;;;;;48.05;28.48;;;13.00;99.90;;;;;;5015492;28;20188;-77
2021/05/15 05:11:14;;;;;;;57.30;31.55;;;13.00;99.90;;;;;;5015672;28;20168;-77
2021/05/15 05:13:40;;;;;;;47.38;29.75;;;13.10;99.90;;;;;;5015408;28;20172;-80
2021/05/15 05:16:05;;;;;;;47.40;29.50;;;13.00;99.90;;;;;;5015597;28;20641;-76
2021/05/15 05:18:31;;;;;;;51.72;30.13;;;13.10;99.90;;;;;;5015330;28;20185;-76
2021/05/15 05:20:57;;;;;;;46.72;29.63;;;13.20;99.90;;;;;;5015288;28;20664;-76
2021/05/15 05:23:24;;;;;;;51.28;31.77;;;13.10;99.90;;;;;;5015453;28;20211;-76
2021/05/15 05:25:49;;;;;;;50.22;29.00;;;13.00;99.90;;;;;;5015153;28;20226;-76
2021/05/15 05:28:20;;;;;;;46.30;30.05;;;13.00;99.90;;;;;;5015268;28;20664;-77
2021/05/15 05:30:46;;;;;;;45.55;28.83;;;13.00;99.90;;;;;;5015411;28;20625;-81
2021/05/15 05:33:11;;;;;;;49.85;29.58;;;13.00;99.90;;;;;;5015230;28;20194;-77
2021/05/15 05:35:38;;;;;;;51.65;30.67;;;13.10;99.90;;;;;;5015083;28;20172;-76
2021/05/15 05:38:05;;;;;;;44.35;26.67;;;13.10;99.90;;;;;;5015219;28;20691;-76
2021/05/15 05:40:31;;;;;;;41.80;27.40;;;13.20;99.90;;;;;;5015412;28;20165;-76
2021/05/15 05:42:56;;;;;;;42.75;27.65;;;13.30;99.90;;;;;;5015032;28;20707;-76
2021/05/15 05:45:22;;;;;;;38.10;25.55;;;13.20;99.90;;;;;;5015044;28;20161;-76
2021/05/15 05:47:48;;;;;;;36.95;24.20;;;13.20;99.90;;;;;;5014979;28;20519;-77
2021/05/15 05:50:14;;;;;;;38.78;23.80;;;13.40;99.90;;;;;;5013798;28;20172;-77
2021/05/15 05:52:40;;;;;;;39.92;25.75;;;13.70;99.90;;;;;;5014895;28;20176;-78
2021/05/15 05:55:07;;;;;;;36.10;25.00;;;13.60;99.90;;;;;;5014749;28;20176;-77
2021/05/15 05:57:32;;;;;;;37.45;24.20;;;13.70;99.90;;;;;;5014503;28;20670;-77
2021/05/15 05:59:58;;;;;;;39.50;24.80;;;13.80;99.90;;;;;;5014881;28;20165;-77
2021/05/15 06:02:24;;;;;;;33.63;23.00;;;13.80;99.90;;;;;;5014250;28;20208;-76
2021/05/15 06:04:49;;;;;;;33.78;20.63;;;13.70;99.90;;;;;;5014580;28;20540;-77
2021/05/15 06:07:15;;;;;;;22.75;17.92;;;13.80;99.90;;;;;;5014452;28;20230;-77
2021/05/15 06:09:41;;;;;;;25.98;18.30;;;14.20;99.90;;;;;;5014422;28;20203;-77
2021/05/15 06:12:07;;;;;;;25.13;18.33;;;14.40;99.90;;;;;;5014395;28;20180;-77
2021/05/15 06:14:34;;;;;;;29.17;16.92;;;14.70;99.90;;;;;;5013995;28;20200;-76
2021/05/15 06:17:00;;;;;;;22.55;16.63;;;14.60;99.90;;;;;;5014536;28;20176;-77
2021/05/15 06:19:25;;;;;;;22.60;14.80;;;14.40;99.90;;;;;;5013978;28;20799;-77
2021/05/15 06:21:51;;;;;;;16.42;13.68;;;14.20;99.90;;;;;;5013941;28;20230;-76
2021/05/15 06:24:16;;;;;;;24.42;14.48;;;14.60;99.90;;;;;;5014148;28;20175;-78
2021/05/15 06:26:42;;;;;;;16.30;11.73;;;14.50;99.90;;;;;;5012733;28;20173;-81
2021/05/15 06:29:08;;;;;;;15.82;12.13;;;14.60;99.90;;;;;;5014142;28;20172;-77
2021/05/15 06:31:33;;;;;;;13.07;11.05;;;14.30;99.90;;;;;;5013813;28;20169;-78
2021/05/15 06:33:59;;;;;;;12.15;10.85;;;14.50;99.90;;;;;;5014175;28;20164;-78
2021/05/15 06:36:24;;;;;;;15.10;11.07;;;14.90;99.90;;;;;;5013962;28;20164;-78
2021/05/15 06:38:50;;;;;;;11.70;10.43;;;14.90;99.90;;;;;;5013590;28;20239;-78
2021/05/15 06:41:16;;;;;;;14.93;10.93;;;14.90;99.90;;;;;;5013730;28;20204;-79
2021/05/15 06:43:41;;;;;;;10.77;9.43;;;14.90;99.90;;;;;;5013650;28;20173;-78
2021/05/15 06:46:07;;;;;;;21.38;11.40;;;14.80;99.90;;;;;;5013482;28;20165;-78
2021/05/15 06:48:33;;;;;;;16.10;10.57;;;15.10;99.90;;;;;;5013230;28;20184;-79
2021/05/15 06:50:58;;;;;;;14.88;9.40;;;15.10;99.90;;;;;;5013573;28;20496;-78
2021/05/15 06:53:24;;;;;;;8.82;7.93;;;15.10;99.90;;;;;;5013440;28;20255;-78
2021/05/15 06:55:50;;;;;;;19.90;9.05;;;15.10;99.90;;;;;;5012962;28;20667;-78
2021/05/15 06:58:15;;;;;;;10.00;7.47;;;15.30;99.90;;;;;;5013031;28;20196;-77
2021/05/15 07:00:41;;;;;;;9.10;8.20;;;15.10;99.90;;;;;;5013577;28;20161;-78
2021/05/15 07:03:07;;;;;;;8.10;7.40;;;15.00;99.90;;;;;;5013457;28;20192;-78
2021/05/15 07:05:34;;;;;;;16.63;6.80;;;15.20;99.90;;;;;;5013355;28;20214;-77
2021/05/15 07:08:00;;;;;;;8.57;7.53;;;15.10;99.90;;;;;;5013020;28;20192;-77
2021/05/15 07:10:26;;;;;;;10.48;7.68;;;14.70;99.90;;;;;;5012946;28;20520;-78
2021/05/15 07:12:53;;;;;;;8.95;8.15;;;14.70;99.90;;;;;;5012896;28;20207;-79
2021/05/15 07:15:20;;;;;;;8.55;7.22;;;13.90;99.90;;;;;;5012914;28;20618;-79
2021/05/15 07:17:46;;;;;;;9.55;8.65;;;13.60;99.90;;;;;;5012693;28;20274;-80
2021/05/15 07:20:12;;;;;;;9.38;8.43;;;13.70;99.90;;;;;;5012801;28;20165;-80
2021/05/15 07:22:40;;;;;;;9.57;8.50;;;13.60;99.90;;;;;;5011499;28;20216;-80
2021/05/15 07:25:07;;;;;;;10.85;9.10;;;13.50;99.90;;;;;;5013077;28;20168;-79
2021/05/15 07:27:33;;;;;;;20.05;9.25;;;13.20;99.90;;;;;;5011982;28;20192;-82
2021/05/15 07:30:00;;;;;;;14.32;8.95;;;13.20;99.90;;;;;;5011335;28;20160;-78
2021/05/15 07:32:26;;;;;;;18.42;9.45;;;13.10;99.90;;;;;;5012072;28;20168;-78
2021/05/15 07:34:51;;;;;;;13.32;8.85;;;13.20;99.90;;;;;;5012708;28;20180;-78
2021/05/15 07:37:17;;;;;;;9.68;8.60;;;13.30;99.90;;;;;;5012195;28;20185;-78
2021/05/15 07:39:44;;;;;;;9.98;8.10;;;12.90;99.90;;;;;;5012806;28;20255;-79
2021/05/15 07:42:10;;;;;;;14.65;9.25;;;13.00;99.90;;;;;;5013198;28;20261;-81
2021/05/15 07:44:35;;;;;;;10.95;8.80;;;13.10;99.90;;;;;;5012827;28;20632;-80
2021/05/15 07:47:02;;;;;;;10.52;9.13;;;13.20;99.90;;;;;;5012843;28;20168;-80
2021/05/15 07:49:28;;;;;;;8.88;8.05;;;13.30;99.90;;;;;;5012854;28;20647;-80
2021/05/15 07:51:54;;;;;;;14.23;8.95;;;13.60;99.90;;;;;;5011294;28;20219;-80
2021/05/15 07:54:20;;;;;;;9.35;8.23;;;13.80;99.90;;;;;;5011270;28;20632;-80
2021/05/15 07:56:47;;;;;;;10.20;8.73;;;13.70;99.90;;;;;;5012341;28;20173;-81
2021/05/15 07:59:13;;;;;;;10.05;8.10;;;13.60;99.90;;;;;;5010609;28;20227;-81
2021/05/15 08:01:39;;;;;;;8.77;7.60;;;13.90;99.90;;;;;;5012236;28;20692;-80
2021/05/15 08:04:05;;;;;;;10.52;7.95;;;14.20;99.90;;;;;;5012103;28;20165;-80
2021/05/15 08:06:30;;;;;;;7.45;6.85;;;14.50;99.90;;;;;;5010997;28;20180;-80
2021/05/15 08:08:56;;;;;;;12.20;7.40;;;15.20;99.90;;;;;;5012221;28;20204;-81
2021/05/15 08:11:22;;;;;;;12.68;6.80;;;15.70;99.90;;;;;;5011098;28;20524;-81
2021/05/15 08:13:48;;;;;;;10.48;7.03;;;16.10;99.90;;;;;;5013285;28;20190;-80
2021/05/15 08:16:14;;;;;;;7.57;6.38;;;15.90;99.90;;;;;;5016420;28;20536;-80
2021/05/15 08:18:41;;;;;;;6.47;5.80;;;15.50;99.90;;;;;;5015252;28;20199;-80
2021/05/15 08:21:10;;;;;;;7.78;6.05;;;15.40;99.90;;;;;;5015178;28;20200;-80
2021/05/15 08:23:36;;;;;;;9.15;6.90;;;15.10;99.90;;;;;;5016011;28;20206;-80
2021/05/15 08:26:06;;;;;;;7.78;6.28;;;14.80;99.90;;;;;;5016053;28;20169;-80
2021/05/15 08:28:32;;;;;;;9.85;5.95;;;14.50;99.90;;;;;;5014213;28;20271;-80
2021/05/15 08:30:58;;;;;;;7.25;5.60;;;14.50;99.90;;;;;;5014809;28;20331;-80
2021/05/15 08:33:24;;;;;;;7.63;6.13;;;14.60;99.90;;;;;;5016398;28;20176;-81
2021/05/15 08:35:50;;;;;;;5.75;5.15;;;14.70;99.90;;;;;;5016311;28;20578;-80
2021/05/15 08:38:15;;;;;;;6.07;4.78;;;14.80;99.90;;;;;;5015655;28;20192;-80
2021/05/15 08:40:41;;;;;;;6.47;4.65;;;14.60;99.90;;;;;;5014741;28;20168;-80
2021/05/15 08:43:07;;;;;;;5.40;4.90;;;14.60;99.90;;;;;;5014395;28;20242;-81
2021/05/15 08:45:33;;;;;;;7.40;5.25;;;14.80;99.90;;;;;;5014442;28;20243;-80
2021/05/15 08:48:01;;;;;;;5.38;4.80;;;15.20;99.90;;;;;;5015576;28;20238;-81
2021/05/15 08:50:28;;;;;;;6.68;4.68;;;15.80;99.90;;;;;;5015659;28;20255;-81
2021/05/15 08:52:56;;;;;;;5.85;5.22;;;15.90;99.90;;;;;;5015542;28;20172;-80
2021/05/15 08:55:27;;;;;;;9.40;4.65;;;15.70;99.90;;;;;;5015234;28;20613;-81
2021/05/15 08:57:54;;;;;;;5.60;4.05;;;15.60;99.90;;;;;;5015181;28;20215;-81
2021/05/15 09:00:28;;;;;;;5.22;4.43;;;15.60;99.90;;;;;;5014297;28;20169;-81
2021/05/15 09:02:57;;;;;;;7.75;3.80;;;15.50;99.90;;;;;;5015415;28;20243;-80
2021/05/15 09:05:24;;;;;;;8.27;3.42;;;15.50;99.90;;;;;;5014195;28;20620;-81
2021/05/15 09:07:55;;;;;;;4.65;3.65;;;15.50;99.90;;;;;;5015496;28;20196;-80
2021/05/15 09:10:29;;;;;;;4.22;3.72;;;15.40;99.90;;;;;;5015324;28;20187;-81
2021/05/15 09:13:12;;;;;;;4.40;3.85;;;15.60;99.90;;;;;;5015616;28;20163;-80
2021/05/15 09:15:40;;;;;;;4.10;3.08;;;15.60;99.90;;;;;;5015069;28;20168;-79
2021/05/15 09:18:06;;;;;;;6.72;3.45;;;16.00;99.90;;;;;;5014053;28;20572;-80
2021/05/15 09:20:33;;;;;;;5.50;3.72;;;16.30;99.90;;;;;;5015298;28;20165;-80
2021/05/15 09:23:13;;;;;;;9.63;4.90;;;16.70;99.90;;;;;;5015390;28;20212;-80
2021/05/15 09:25:39;;;;;;;3.80;3.40;;;17.00;99.90;;;;;;5015279;28;20207;-79
2021/05/15 09:28:05;;;;;;;6.22;3.03;;;17.00;99.90;;;;;;5014889;28;20587;-80
2021/05/15 09:30:32;;;;;;;8.40;3.00;;;17.30;99.90;;;;;;5014818;28;20636;-79
2021/05/15 09:32:57;;;;;;;12.32;3.83;;;17.60;99.90;;;;;;5015170;28;20168;-80
2021/05/15 09:35:27;;;;;;;6.22;3.55;;;17.60;99.90;;;;;;5015304;28;20165;-80
2021/05/15 09:37:53;;;;;;;6.68;3.15;;;17.50;99.90;;;;;;5015516;28;20184;-79
2021/05/15 09:40:28;;;;;;;5.35;3.13;;;17.40;99.90;;;;;;5015139;28;20635;-79
2021/05/15 09:43:01;;;;;;;4.55;2.45;;;17.20;99.90;;;;;;5014787;28;20215;-80
2021/05/15 09:45:32;;;;;;;11.00;2.97;;;17.00;99.90;;;;;;5014638;28;20195;-80
2021/05/15 09:48:09;;;;;;;3.17;2.85;;;16.90;99.90;;;;;;5013303;28;20656;-80
2021/05/15 09:50:39;;;;;;;9.07;2.55;;;16.60;99.90;;;;;;5015021;28;20525;-80
2021/05/15 09:53:12;;;;;;;2.67;2.38;;;16.80;99.90;;;;;;5014719;28;20177;-80
2021/05/15 09:55:41;;;;;;;4.25;2.60;;;16.70;99.90;;;;;;5014727;28;20223;-80
2021/05/15 09:58:08;;;;;;;4.15;2.90;;;16.60;99.90;;;;;;5014452;28;20188;-81
2021/05/15 10:00:51;;;;;;;6.70;2.92;;;16.30;99.90;;;;;;5014777;28;20196;-80
2021/05/15 10:03:28;;;;;;;4.07;2.25;;;15.70;99.90;;;;;;5014213;28;20191;-80
2021/05/15 10:06:12;;;;;;;4.82;2.40;;;15.50;99.90;;;;;;5014355;28;20287;-80
2021/05/15 10:08:43;;;;;;;3.08;2.08;;;15.50;99.90;;;;;;5014437;28;20188;-80
2021/05/15 10:11:09;;;;;;;4.18;2.22;;;15.50;99.90;;;;;;5013393;28;20187;-81
2021/05/15 10:13:37;;;;;;;8.40;2.80;;;15.50;99.90;;;;;;5014464;28;20248;-81
2021/05/15 10:16:04;;;;;;;7.22;3.05;;;15.60;99.90;;;;;;5015060;28;20169;-81
2021/05/15 10:18:31;;;;;;;8.60;2.60;;;15.40;99.90;;;;;;5014367;28;20239;-81
2021/05/15 10:20:57;;;;;;;5.57;3.40;;;15.10;99.90;;;;;;5015855;28;20168;-80
2021/05/15 10:23:44;;;;;;;7.00;2.30;;;14.80;99.90;;;;;;5016452;28;20196;-81
2021/05/15 10:26:16;;;;;;;6.28;2.30;;;14.50;99.90;;;;;;5016136;28;20184;-81
2021/05/15 10:28:43;;;;;;;6.15;3.40;;;14.40;99.90;;;;;;5017532;28;20194;-80
2021/05/15 10:31:13;;;;;;;5.57;2.10;;;14.60;99.90;;;;;;5031171;28;20187;-79
2021/05/15 10:33:40;;;;;;;2.78;2.20;;;14.70;99.90;;;;;;5036443;28;20203;-80
2021/05/15 10:36:08;;;;;;;5.03;2.22;;;15.10;99.90;;;;;;5035979;28;20176;-80
2021/05/15 10:38:39;;;;;;;4.22;2.47;;;15.40;99.90;;;;;;5036898;28;20212;-80
2021/05/15 10:41:19;;;;;;;3.90;1.88;;;15.70;99.90;;;;;;5017377;28;20196;-81
2021/05/15 10:43:48;;;;;;;5.53;2.65;;;15.70;99.90;;;;;;5015298;28;20164;-81
2021/05/15 10:46:18;;;;;;;6.15;2.58;;;15.70;99.90;;;;;;5013303;28;20169;-81
2021/05/15 10:49:11;;;;;;;3.70;2.22;;;16.10;99.90;;;;;;5014216;28;20196;-81
2021/05/15 10:51:58;;;;;;;6.20;2.60;;;16.10;99.90;;;;;;5014529;28;20168;-80
2021/05/15 10:54:32;;;;;;;7.78;1.73;;;16.50;99.90;;;;;;5006022;28;20188;-81
2021/05/15 10:57:09;;;;;;;1.30;1.20;;;17.00;99.90;;;;;;5012809;28;20595;-80
2021/05/15 10:59:36;;;;;;;5.88;1.63;;;16.60;99.90;;;;;;5010338;28;20203;-80
2021/05/15 11:02:08;;;;;;;6.57;1.70;;;16.30;99.90;;;;;;5012240;28;20208;-81
2021/05/15 11:04:53;;;;;;;2.00;1.80;;;16.20;99.90;;;;;;5012323;28;20169;-79
2021/05/15 11:07:23;;;;;;;1.27;1.08;;;16.10;99.90;;;;;;5013650;28;20192;-81
2021/05/15 11:09:58;;;;;;;4.97;1.15;;;15.80;99.90;;;;;;5012408;28;20169;-82
2021/05/15 11:12:27;;;;;;;7.40;1.20;;;15.40;99.90;;;;;;5013202;28;20168;-80
2021/05/15 11:15:00;;;;;;;1.95;1.00;;;15.50;99.90;;;;;;5012978;28;20176;-81
2021/05/15 11:17:30;;;;;;;2.15;0.90;;;15.70;99.90;;;;;;5013394;28;20189;-80
2021/05/15 11:20:12;;;;;;;2.95;1.38;;;15.40;99.90;;;;;;5012560;28;20176;-81
2021/05/15 11:22:42;;;;;;;3.42;0.75;;;15.20;99.90;;;;;;5013079;28;20220;-82
2021/05/15 11:25:14;;;;;;;4.68;1.35;;;15.20;99.90;;;;;;5011684;28;20203;-81
2021/05/15 11:27:52;;;;;;;1.83;1.00;;;15.10;99.90;;;;;;5012976;28;20198;-80
2021/05/15 11:30:20;;;;;;;1.77;1.42;;;15.30;99.90;;;;;;5013090;28;20183;-81
2021/05/15 11:33:04;;;;;;;1.15;1.00;;;14.90;99.90;;;;;;5013117;28;20177;-81
2021/05/15 11:35:32;;;;;;;2.15;1.00;;;14.60;99.90;;;;;;5011717;28;20180;-81
2021/05/15 11:38:01;;;;;;;8.93;1.13;;;14.30;99.90;;;;;;5012436;28;20723;-83
2021/05/15 11:40:27;;;;;;;2.35;1.27;;;14.00;99.90;;;;;;5011516;28;20183;-82
2021/05/15 11:42:56;;;;;;;1.88;0.90;;;14.00;99.90;;;;;;5011092;28;20291;-79
2021/05/15 11:45:29;;;;;;;1.52;0.90;;;14.10;99.90;;;;;;5012904;28;20185;-80
2021/05/15 11:48:10;;;;;;;1.48;1.05;;;14.30;99.90;;;;;;5011733;28;20181;-80
2021/05/15 11:50:36;;;;;;;6.15;1.20;;;14.40;99.90;;;;;;5012636;28;20164;-80
2021/05/15 11:53:04;;;;;;;1.52;1.05;;;14.40;99.90;;;;;;5012949;28;20192;-80
2021/05/15 11:55:31;;;;;;;2.83;1.00;;;14.40;99.90;;;;;;5011685;28;20164;-80
2021/05/15 11:57:57;;;;;;;1.48;1.02;;;14.50;99.90;;;;;;5012741;28;20263;-80
2021/05/15 12:00:29;;;;;;;1.65;1.10;;;14.60;99.90;;;;;;5012785;28;20671;-80
2021/05/15 12:02:55;;;;;;;3.30;1.42;;;14.90;99.90;;;;;;5011159;28;20212;-80
2021/05/15 12:05:21;;;;;;;2.35;1.00;;;14.60;99.90;;;;;;5012818;28;20180;-80
2021/05/15 12:07:54;;;;;;;4.63;1.10;;;14.10;99.90;;;;;;5011424;28;20234;-80
2021/05/15 12:10:22;;;;;;;3.95;1.20;;;14.10;99.90;;;;;;5012736;28;20571;-80
2021/05/15 12:12:54;;;;;;;2.13;1.58;;;14.30;99.90;;;;;;5011248;28;20655;-80
2021/05/15 12:15:21;;;;;;;5.80;1.75;;;14.30;99.90;;;;;;5011297;28;20176;-80
2021/05/15 12:17:46;;;;;;;3.58;1.70;;;14.30;99.90;;;;;;5012345;28;20564;-81
2021/05/15 12:20:28;;;;;;;2.63;1.30;;;14.10;99.90;;;;;;5012315;28;20169;-82
2021/05/15 12:23:09;;;;;;;3.97;1.85;;;14.00;99.90;;;;;;5012189;28;20212;-83
2021/05/15 12:25:36;;;;;;;4.57;1.30;;;13.50;99.90;;;;;;5011185;28;20275;-83
2021/05/15 12:28:03;;;;;;;1.92;1.02;;;13.80;99.90;;;;;;5011131;28;20200;-85
2021/05/15 12:30:29;;;;;;;1.77;1.40;;;13.60;99.90;;;;;;5012081;28;20314;-85
2021/05/15 12:33:06;;;;;;;2.00;1.88;;;13.80;99.90;;;;;;5011725;28;20200;-81
2021/05/15 12:35:33;;;;;;;1.80;1.48;;;13.80;99.90;;;;;;5021254;28;20179;-80
2021/05/15 12:38:00;;;;;;;6.32;1.50;;;13.90;99.90;;;;;;5022862;28;20219;-83